Time;durP1;ratioP1;P1;durP2;ratioP2;P2;SDS_P1;SDS_P2;PMS_P1;PMS_P2;Temp;Humidity;BMP_temperature;BMP_pressure;BME280_temperature;BME280_humidity;BME280_pressure;Samples;Min_cycle;Max_cycle;Signal;HPM_P1;HPM_P2
2022/03/08 00:00:22;;;;;;;42.33;18.52;;;;;;;2.17;65.95;102296.13;5078328;28;20085;-46
2022/03/08 00:02:47;;;;;;;40.53;18.27;;;;;;;2.15;66.25;102282.06;5082515;28;20028;-46
2022/03/08 00:05:13;;;;;;;47.75;18.42;;;;;;;2.06;66.36;102286.16;5082865;28;20032;-45
2022/03/08 00:07:38;;;;;;;45.63;16.73;;;;;;;2.05;66.14;102286.22;5064293;28;20036;-46
2022/03/08 00:10:05;;;;;;;42.65;17.38;;;;;;;1.99;66.23;102287.44;5071642;28;20094;-45
2022/03/08 00:12:31;;;;;;;41.53;18.02;;;;;;;1.97;66.14;102279.59;5072835;28;20044;-46
2022/03/08 00:14:56;;;;;;;41.22;17.42;;;;;;;1.96;66.22;102279.66;5068602;28;20385;-46
2022/03/08 00:17:21;;;;;;;44.55;16.95;;;;;;;1.86;66.19;102276.69;5052940;28;20051;-46
2022/03/08 00:19:47;;;;;;;42.83;17.55;;;;;;;1.91;65.96;102279.94;5077001;28;20403;-48
2022/03/08 00:22:12;;;;;;;38.75;17.55;;;;;;;1.95;66.24;102276.16;5067579;28;20113;-46
2022/03/08 00:24:37;;;;;;;41.63;16.65;;;;;;;1.97;66.00;102274.28;5068098;28;20459;-45
2022/03/08 00:27:03;;;;;;;43.53;17.75;;;;;;;1.85;66.22;102267.03;5073201;28;20024;-46
2022/03/08 00:29:28;;;;;;;44.17;16.42;;;;;;;1.82;66.61;102261.91;5073739;28;20031;-46
2022/03/08 00:31:53;;;;;;;41.95;17.77;;;;;;;1.86;66.07;102270.53;5054783;28;20503;-50
2022/03/08 00:34:19;;;;;;;42.33;17.48;;;;;;;1.82;66.08;102264.56;5084110;28;20036;-46
2022/03/08 00:36:45;;;;;;;41.00;17.17;;;;;;;1.80;66.27;102266.44;5070562;28;20035;-46
2022/03/08 00:39:10;;;;;;;42.28;16.75;;;;;;;1.82;66.38;102263.69;5071153;28;20032;-47
2022/03/08 00:41:37;;;;;;;43.90;18.60;;;;;;;1.80;65.98;102255.81;5071960;28;20037;-47
2022/03/08 00:44:03;;;;;;;44.35;17.27;;;;;;;1.75;65.90;102249.94;5077637;28;20052;-47
2022/03/08 00:46:29;;;;;;;35.10;16.45;;;;;;;1.71;66.04;102259.00;5079054;28;20085;-46
2022/03/08 00:48:55;;;;;;;40.92;17.45;;;;;;;1.72;66.43;102252.78;5075886;28;20024;-45
2022/03/08 00:51:21;;;;;;;38.42;16.98;;;;;;;1.67;66.21;102260.16;5084188;28;20028;-46
2022/03/08 00:53:48;;;;;;;40.20;17.55;;;;;;;1.64;66.13;102255.03;5082280;28;20020;-46
2022/03/08 00:56:14;;;;;;;45.47;15.80;;;;;;;1.67;66.36;102257.50;5070870;28;20032;-48
2022/03/08 00:58:41;;;;;;;42.97;17.58;;;;;;;1.63;66.32;102255.94;5079948;28;20107;-45
2022/03/08 01:01:06;;;;;;;38.78;17.33;;;;;;;1.60;66.37;102253.47;5077182;28;21683;-46
2022/03/08 01:03:32;;;;;;;43.42;16.48;;;;;;;1.53;66.39;102251.19;5074046;28;20051;-46
2022/03/08 01:05:57;;;;;;;39.75;16.55;;;;;;;1.50;66.68;102251.38;5083308;28;20027;-46
2022/03/08 01:08:22;;;;;;;48.85;16.92;;;;;;;1.48;66.45;102244.44;5072121;28;20471;-47
2022/03/08 01:10:48;;;;;;;44.47;17.33;;;;;;;1.49;66.28;102246.97;5072690;28;20082;-46
2022/03/08 01:13:13;;;;;;;38.03;16.60;;;;;;;1.50;66.80;102250.47;5066605;28;20179;-47
2022/03/08 01:15:39;;;;;;;46.88;16.98;;;;;;;1.53;66.58;102240.56;5079718;28;20035;-46
2022/03/08 01:18:04;;;;;;;41.58;16.00;;;;;;;1.46;66.40;102251.63;5050964;28;20123;-46
2022/03/08 01:20:29;;;;;;;41.20;16.88;;;;;;;1.40;66.60;102250.19;5070726;28;20063;-45
2022/03/08 01:22:55;;;;;;;41.88;15.23;;;;;;;1.43;66.17;102241.19;5080923;28;20090;-45
2022/03/08 01:25:21;;;;;;;33.60;15.48;;;;;;;1.45;65.79;102248.13;5083912;28;20024;-47
2022/03/08 01:27:47;;;;;;;34.83;16.25;;;;;;;1.41;65.92;102243.06;5051245;28;20021;-47
2022/03/08 01:30:15;;;;;;;37.22;15.00;;;;;;;1.34;65.75;102241.69;5067715;28;20028;-47
2022/03/08 01:32:40;;;;;;;44.28;16.15;;;;;;;1.40;65.76;102244.88;5069891;28;20070;-47
2022/03/08 01:35:06;;;;;;;35.42;15.32;;;;;;;1.39;65.68;102247.59;5079526;28;20024;-49
2022/03/08 01:37:31;;;;;;;38.00;16.15;;;;;;;1.35;65.86;102232.81;5076185;28;20089;-46
2022/03/08 01:39:57;;;;;;;36.50;15.45;;;;;;;1.36;65.62;102235.38;5075881;28;20028;-47
2022/03/08 01:42:24;;;;;;;33.75;15.52;;;;;;;1.37;65.81;102239.75;5065288;28;20032;-47
2022/03/08 01:44:50;;;;;;;36.47;15.27;;;;;;;1.38;65.61;102222.88;5073202;28;20071;-48
2022/03/08 01:47:18;;;;;;;33.58;15.90;;;;;;;1.39;65.66;102224.56;5066339;28;20447;-47
2022/03/08 01:49:45;;;;;;;;;;;;;;;1.42;64.80;102219.13;5048958;28;20072;-46
2022/03/08 01:52:11;;;;;;;36.97;14.75;;;;;;;1.40;65.03;102210.38;5061036;28;19927;-47
2022/03/08 01:54:37;;;;;;;38.42;14.95;;;;;;;1.38;65.10;102214.91;5075884;28;20107;-46
2022/03/08 01:57:05;;;;;;;35.72;15.48;;;;;;;1.33;64.81;102210.84;5079460;28;20064;-47
2022/03/08 01:59:31;;;;;;;35.88;14.93;;;;;;;1.31;65.13;102211.75;5073634;28;20067;-47
2022/03/08 02:01:56;;;;;;;37.25;15.55;;;;;;;1.26;64.92;102205.00;5079404;28;20039;-47
2022/03/08 02:04:22;;;;;;;38.47;14.43;;;;;;;1.26;64.86;102205.88;5073935;28;20094;-47
2022/03/08 02:06:47;;;;;;;35.80;15.02;;;;;;;1.23;65.43;102207.84;5053405;28;20558;-46
2022/03/08 02:09:13;;;;;;;31.98;14.65;;;;;;;1.19;65.04;102201.03;5070435;28;20132;-46
2022/03/08 02:11:38;;;;;;;30.85;14.00;;;;;;;1.14;65.07;102198.63;5066128;28;20041;-46
2022/03/08 02:14:04;;;;;;;31.67;14.35;;;;;;;1.06;64.87;102196.41;5069525;28;20028;-46
2022/03/08 02:16:29;;;;;;;33.90;14.18;;;;;;;1.12;65.13;102189.06;5057815;28;20136;-49
2022/03/08 02:18:55;;;;;;;34.80;15.52;;;;;;;1.09;64.92;102182.97;5069758;28;20040;-46
2022/03/08 02:21:20;;;;;;;37.47;14.35;;;;;;;1.01;64.99;102187.84;5046521;28;20024;-46
2022/03/08 02:23:45;;;;;;;35.60;13.95;;;;;;;1.00;65.02;102170.25;5064973;28;20109;-47
2022/03/08 02:26:11;;;;;;;34.13;14.15;;;;;;;1.06;64.93;102175.19;5076780;28;20364;-46
2022/03/08 02:28:37;;;;;;;33.30;14.32;;;;;;;1.02;64.76;102168.34;5050527;28;20197;-46
2022/03/08 02:31:02;;;;;;;31.27;13.80;;;;;;;0.96;64.32;102160.75;5066805;28;20036;-47
2022/03/08 02:33:27;;;;;;;30.58;13.27;;;;;;;0.92;64.57;102161.84;5061942;28;20415;-47
2022/03/08 02:35:53;;;;;;;31.70;13.10;;;;;;;0.96;64.36;102163.41;5069419;28;20056;-46
2022/03/08 02:38:18;;;;;;;27.85;13.13;;;;;;;0.98;63.62;102158.88;5073146;28;20079;-46
2022/03/08 02:40:44;;;;;;;32.05;12.70;;;;;;;1.02;63.09;102160.41;5067632;28;20052;-47
2022/03/08 02:43:10;;;;;;;28.15;12.85;;;;;;;1.09;63.03;102159.09;5071872;28;20133;-47
2022/03/08 02:45:36;;;;;;;37.30;14.25;;;;;;;1.14;62.33;102158.00;5056072;28;20045;-47
2022/03/08 02:48:03;;;;;;;26.27;11.73;;;;;;;1.14;61.74;102163.31;5070756;28;20040;-45
2022/03/08 02:50:28;;;;;;;27.33;11.30;;;;;;;1.11;61.94;102159.03;5080874;28;20058;-46
2022/03/08 02:52:55;;;;;;;22.67;10.73;;;;;;;1.11;61.47;102161.69;5080939;28;20031;-46
2022/03/08 02:55:23;;;;;;;25.35;11.52;;;;;;;1.13;61.05;102148.31;5051316;28;20108;-49
2022/03/08 02:57:49;;;;;;;25.23;11.63;;;;;;;1.19;60.99;102155.94;5075018;28;20093;-47
2022/03/08 03:00:16;;;;;;;21.17;10.65;;;;;;;1.14;60.98;102150.03;5080455;28;20475;-48
2022/03/08 03:02:41;;;;;;;23.95;10.98;;;;;;;1.10;61.02;102144.91;5078743;28;20043;-47
2022/03/08 03:05:07;;;;;;;22.73;9.95;;;;;;;1.16;60.37;102148.13;5070087;28;20498;-49
2022/03/08 03:07:33;;;;;;;25.52;11.05;;;;;;;1.12;59.94;102143.97;5100425;22;20056;-49
2022/03/08 03:09:59;;;;;;;22.70;10.70;;;;;;;1.12;60.02;102141.31;5068711;28;20028;-48
2022/03/08 03:12:24;;;;;;;22.13;10.00;;;;;;;1.09;60.32;102137.06;5069781;28;20060;-48
2022/03/08 03:14:50;;;;;;;24.48;10.07;;;;;;;1.08;59.94;102133.56;5065649;28;20025;-48
2022/03/08 03:17:17;;;;;;;23.85;9.60;;;;;;;1.05;60.10;102131.09;5066006;28;20036;-49
2022/03/08 03:19:42;;;;;;;24.27;10.68;;;;;;;1.08;59.80;102138.84;5069839;28;20494;-48
2022/03/08 03:22:07;;;;;;;24.02;9.88;;;;;;;1.06;59.78;102126.63;5069887;28;20068;-46
2022/03/08 03:24:33;;;;;;;25.55;10.05;;;;;;;1.02;60.02;102123.28;5057923;28;20033;-47
2022/03/08 03:26:58;;;;;;;27.92;11.07;;;;;;;1.04;60.01;102118.75;5070231;28;20103;-48
2022/03/08 03:29:23;;;;;;;21.80;10.68;;;;;;;1.04;59.91;102112.59;5070044;28;20371;-47
2022/03/08 03:31:49;;;;;;;23.38;10.18;;;;;;;1.00;60.09;102111.94;5070024;28;20479;-46
2022/03/08 03:34:14;;;;;;;19.17;10.20;;;;;;;1.01;59.98;102116.28;5069823;28;20036;-47
2022/03/08 03:36:39;;;;;;;22.73;9.95;;;;;;;1.05;59.23;102109.88;5069974;28;20455;-49
2022/03/08 03:39:05;;;;;;;24.17;10.27;;;;;;;1.02;59.73;102109.19;5069780;28;20060;-46
2022/03/08 03:41:31;;;;;;;31.58;11.25;;;;;;;1.02;59.88;102115.31;5056784;28;20067;-48
2022/03/08 03:43:56;;;;;;;24.83;10.75;;;;;;;1.00;59.65;102114.59;5068298;28;20129;-49
2022/03/08 03:46:22;;;;;;;23.20;9.88;;;;;;;0.91;60.00;102112.44;5069457;28;20036;-47
2022/03/08 03:48:48;;;;;;;21.73;10.55;;;;;;;0.89;60.35;102114.31;5069934;28;20028;-49
2022/03/08 03:51:14;;;;;;;20.08;10.00;;;;;;;0.91;60.32;102111.59;5069872;28;20025;-48
2022/03/08 03:53:39;;;;;;;24.95;10.88;;;;;;;0.88;60.47;102108.19;5068765;28;20048;-46
2022/03/08 03:56:04;;;;;;;20.85;10.13;;;;;;;0.81;60.77;102101.50;5069748;28;20059;-46
2022/03/08 03:58:30;;;;;;;24.75;10.95;;;;;;;0.82;60.20;102113.00;5070962;28;20041;-48
2022/03/08 04:00:55;;;;;;;22.75;10.10;;;;;;;0.77;60.75;102115.03;5069728;28;20036;-48
2022/03/08 04:03:21;;;;;;;21.35;9.75;;;;;;;0.80;60.22;102106.91;5069549;28;20031;-47
2022/03/08 04:05:46;;;;;;;19.67;9.95;;;;;;;0.77;60.08;102104.44;5070365;28;20055;-50
2022/03/08 04:08:11;;;;;;;24.67;10.52;;;;;;;0.74;60.40;102097.53;5089390;28;20078;-47
2022/03/08 04:10:37;;;;;;;22.17;9.57;;;;;;;0.80;60.05;102098.97;5089455;28;20523;-47
2022/03/08 04:13:03;;;;;;;25.80;10.68;;;;;;;0.77;60.48;102105.28;5089135;28;20530;-48
2022/03/08 04:15:28;;;;;;;22.05;10.70;;;;;;;0.76;60.63;102090.31;5089477;28;20060;-48
2022/03/08 04:17:55;;;;;;;20.20;10.32;;;;;;;0.78;60.75;102096.38;5089127;28;20047;-49
2022/03/08 04:20:20;;;;;;;24.45;10.13;;;;;;;0.77;60.74;102092.03;5092872;28;20048;-47
2022/03/08 04:22:45;;;;;;;23.10;9.82;;;;;;;0.69;60.90;102083.69;5093616;28;20431;-46
2022/03/08 04:25:11;;;;;;;23.20;11.13;;;;;;;0.71;60.97;102088.88;5092733;28;20024;-48
2022/03/08 04:27:37;;;;;;;24.80;10.55;;;;;;;0.63;61.25;102087.53;5093106;28;20478;-49
2022/03/08 04:30:04;;;;;;;20.73;10.70;;;;;;;0.53;61.50;102086.34;5092576;28;20034;-47
2022/03/08 04:32:30;;;;;;;21.27;10.02;;;;;;;0.53;61.78;102080.19;5092831;28;20051;-48
2022/03/08 04:34:55;;;;;;;27.70;11.75;;;;;;;0.50;61.62;102083.88;5092814;28;20016;-49
2022/03/08 04:37:22;;;;;;;23.52;11.07;;;;;;;0.45;61.76;102083.28;5093124;28;20028;-47
2022/03/08 04:39:47;;;;;;;23.55;10.50;;;;;;;0.42;62.19;102079.00;5092403;28;20047;-48
2022/03/08 04:42:12;;;;;;;22.98;10.13;;;;;;;0.44;62.39;102085.03;5091441;28;20117;-48
2022/03/08 04:44:38;;;;;;;19.13;10.13;;;;;;;0.39;62.52;102084.44;5093023;28;20028;-49
2022/03/08 04:47:03;;;;;;;19.48;9.85;;;;;;;0.44;62.33;102084.19;5092381;28;20032;-46
2022/03/08 04:49:29;;;;;;;21.88;10.32;;;;;;;0.35;62.66;102077.63;5092461;28;20103;-48
2022/03/08 04:51:54;;;;;;;22.85;11.00;;;;;;;0.34;62.96;102075.06;5092195;28;20028;-48
2022/03/08 04:54:19;;;;;;;23.85;9.85;;;;;;;0.36;63.28;102079.31;5092363;28;20036;-47
2022/03/08 04:56:45;;;;;;;22.65;10.68;;;;;;;0.33;63.25;102073.34;5092280;28;20031;-49
2022/03/08 04:59:10;;;;;;;28.20;10.68;;;;;;;0.34;63.33;102081.22;5091975;28;20440;-46
2022/03/08 05:01:35;;;;;;;23.58;11.13;;;;;;;0.35;62.59;102076.78;5092393;28;20501;-48
2022/03/08 05:04:01;;;;;;;20.83;10.57;;;;;;;0.34;62.76;102085.66;5092666;28;20031;-45
2022/03/08 05:06:29;;;;;;;18.90;10.27;;;;;;;0.37;62.69;102083.69;5091320;28;20410;-47
2022/03/08 05:08:55;;;;;;;23.40;10.23;;;;;;;0.29;63.09;102088.56;5092153;28;20024;-47
2022/03/08 05:11:20;;;;;;;19.58;10.43;;;;;;;0.25;63.18;102086.16;5092310;28;20032;-48
2022/03/08 05:13:45;;;;;;;24.27;9.55;;;;;;;0.29;62.82;102079.75;5092276;28;20505;-48
2022/03/08 05:16:11;;;;;;;20.60;10.50;;;;;;;0.31;63.15;102085.81;5091263;28;20028;-47
2022/03/08 05:18:36;;;;;;;20.45;9.85;;;;;;;0.27;63.61;102068.41;5092003;28;20056;-47
2022/03/08 05:21:01;;;;;;;22.45;9.98;;;;;;;0.28;63.55;102075.41;5092419;28;20247;-47
2022/03/08 05:23:27;;;;;;;22.67;10.30;;;;;;;0.30;63.38;102068.25;5091857;28;20043;-47
2022/03/08 05:25:52;;;;;;;21.08;10.73;;;;;;;0.25;63.42;102070.28;5092451;28;20024;-48
2022/03/08 05:28:17;;;;;;;22.02;10.38;;;;;;;0.12;63.79;102068.31;5091875;28;20020;-48
2022/03/08 05:30:44;;;;;;;23.17;10.85;;;;;;;0.15;64.11;102070.78;5091918;28;20032;-48
2022/03/08 05:33:09;;;;;;;22.92;10.40;;;;;;;0.10;63.97;102071.97;5092174;28;20039;-49
2022/03/08 05:35:35;;;;;;;22.83;10.95;;;;;;;0.10;64.44;102061.38;5091464;28;20036;-47
2022/03/08 05:38:01;;;;;;;22.50;10.88;;;;;;;0.06;64.53;102060.72;5090656;28;20032;-49
2022/03/08 05:40:26;;;;;;;24.05;10.25;;;;;;;0.01;64.45;102062.75;5091458;28;20024;-47
2022/03/08 05:42:51;;;;;;;23.15;10.05;;;;;;;-0.06;64.72;102056.91;5091443;28;20043;-49
2022/03/08 05:45:17;;;;;;;21.63;10.15;;;;;;;-0.03;64.98;102050.59;5091213;28;20020;-50
2022/03/08 05:47:42;;;;;;;21.65;10.68;;;;;;;-0.05;65.42;102052.50;5091490;28;20038;-51
2022/03/08 05:50:10;;;;;;;22.65;10.75;;;;;;;-0.11;65.58;102052.81;5090971;28;20474;-50
2022/03/08 05:52:35;;;;;;;21.50;10.87;;;;;;;-0.19;65.47;102055.03;5091629;28;20032;-52
2022/03/08 05:55:02;;;;;;;25.67;10.73;;;;;;;-0.18;65.58;102054.13;5086160;28;20089;-50
2022/03/08 05:57:27;;;;;;;17.73;10.23;;;;;;;-0.20;65.60;102048.88;5091473;28;20024;-49
2022/03/08 05:59:53;;;;;;;26.75;10.55;;;;;;;-0.24;65.81;102053.50;5090860;28;20035;-50
2022/03/08 06:02:19;;;;;;;23.13;10.02;;;;;;;-0.19;65.69;102047.94;5091396;28;20036;-47
2022/03/08 06:04:45;;;;;;;18.73;9.60;;;;;;;-0.21;65.66;102057.78;5091502;28;20024;-49
2022/03/08 06:07:10;;;;;;;21.92;11.05;;;;;;;-0.19;66.03;102053.22;5080714;28;20047;-48
2022/03/08 06:09:35;;;;;;;20.13;9.30;;;;;;;-0.22;65.34;102056.91;5091077;28;20032;-47
2022/03/08 06:12:01;;;;;;;23.20;10.00;;;;;;;-0.19;65.61;102053.22;5090464;28;20051;-49
2022/03/08 06:14:27;;;;;;;26.70;11.20;;;;;;;-0.20;65.49;102048.88;5090924;28;20521;-49
2022/03/08 06:16:52;;;;;;;22.35;11.02;;;;;;;-0.24;65.97;102052.63;5089789;28;20059;-49
2022/03/08 06:19:18;;;;;;;20.13;9.70;;;;;;;-0.16;65.60;102045.13;5091137;28;20106;-49
2022/03/08 06:21:43;;;;;;;27.15;10.85;;;;;;;-0.14;65.55;102058.28;5090329;28;20028;-50
2022/03/08 06:24:10;;;;;;;24.77;10.82;;;;;;;-0.15;65.48;102052.16;5066525;28;20469;-46
2022/03/08 06:26:36;;;;;;;20.75;9.88;;;;;;;-0.09;65.68;102061.53;5072414;28;20066;-49
2022/03/08 06:29:01;;;;;;;22.70;10.95;;;;;;;-0.11;65.95;102052.81;5071009;28;20036;-48
2022/03/08 06:31:26;;;;;;;22.52;10.70;;;;;;;-0.07;65.92;102055.22;5074045;28;20432;-51
2022/03/08 06:33:52;;;;;;;22.50;10.38;;;;;;;-0.06;65.71;102051.63;5069299;28;20055;-49
2022/03/08 06:36:17;;;;;;;21.75;10.20;;;;;;;-0.06;65.26;102061.38;5078776;28;20128;-47
2022/03/08 06:38:42;;;;;;;29.10;11.40;;;;;;;-0.06;65.71;102059.56;5077629;28;20414;-49
2022/03/08 06:41:07;;;;;;;26.85;11.65;;;;;;;-0.02;65.32;102062.94;5079152;28;20024;-48
2022/03/08 06:43:33;;;;;;;24.50;11.48;;;;;;;0.28;65.33;102064.81;5079540;28;20063;-47
2022/03/08 06:45:58;;;;;;;21.40;11.10;;;;;;;0.83;63.81;102069.63;5071543;28;20036;-48
2022/03/08 06:48:23;;;;;;;26.92;10.77;;;;;;;1.48;62.15;102067.53;5067030;28;20044;-48
2022/03/08 06:50:49;;;;;;;22.42;11.05;;;;;;;2.04;59.43;102067.63;5070270;28;20123;-48
2022/03/08 06:53:14;;;;;;;22.88;11.05;;;;;;;2.34;57.12;102069.28;5072456;28;20072;-49
2022/03/08 06:55:39;;;;;;;20.05;10.18;;;;;;;2.78;56.73;102073.53;5075227;28;20107;-47
2022/03/08 06:58:05;;;;;;;21.98;11.25;;;;;;;3.05;55.81;102055.75;5072063;28;20111;-47
2022/03/08 07:00:31;;;;;;;30.35;12.93;;;;;;;3.23;55.18;102063.41;5072586;28;20109;-47
2022/03/08 07:02:56;;;;;;;23.85;12.68;;;;;;;3.18;54.44;102061.06;5073038;28;20054;-47
2022/03/08 07:05:21;;;;;;;28.58;11.90;;;;;;;2.99;54.82;102060.59;5080072;28;20520;-49
2022/03/08 07:07:47;;;;;;;26.58;12.13;;;;;;;2.99;53.99;102053.47;5076230;28;20111;-50
2022/03/08 07:10:13;;;;;;;31.27;13.90;;;;;;;3.24;54.24;102055.34;5076036;28;20028;-51
2022/03/08 07:12:38;;;;;;;27.38;13.15;;;;;;;3.09;54.36;102048.41;5067663;28;20647;-49
2022/03/08 07:15:04;;;;;;;32.63;13.13;;;;;;;3.02;54.30;102047.94;5071592;28;20031;-50
2022/03/08 07:17:29;;;;;;;32.03;13.48;;;;;;;3.25;54.06;102059.69;5078075;28;20039;-50
2022/03/08 07:19:55;;;;;;;43.45;14.70;;;;;;;3.36;53.98;102058.09;5079456;28;20505;-48
2022/03/08 07:22:20;;;;;;;29.38;12.20;;;;;;;3.53;52.63;102055.16;5070219;28;20116;-49
2022/03/08 07:24:45;;;;;;;39.67;13.30;;;;;;;3.44;53.43;102066.41;5074615;28;20487;-49
2022/03/08 07:27:11;;;;;;;30.25;12.95;;;;;;;3.18;53.73;102063.72;5077395;28;20064;-48
2022/03/08 07:29:36;;;;;;;34.65;13.02;;;;;;;3.38;52.86;102062.38;5070484;28;20030;-50
2022/03/08 07:32:02;;;;;;;27.98;13.10;;;;;;;4.06;52.43;102071.81;5072863;28;20099;-51
2022/03/08 07:34:27;;;;;;;30.02;13.02;;;;;;;4.09;51.47;102065.44;5076107;28;20424;-47
2022/03/08 07:36:53;;;;;;;30.10;12.52;;;;;;;3.77;51.68;102076.53;5058390;28;20042;-49
2022/03/08 07:39:18;;;;;;;26.80;12.40;;;;;;;3.93;50.79;102068.34;5060474;28;20059;-49
2022/03/08 07:41:44;;;;;;;29.00;12.82;;;;;;;3.76;51.39;102055.34;5068238;28;20033;-50
2022/03/08 07:44:09;;;;;;;30.30;14.07;;;;;;;4.17;50.42;102060.41;5070728;28;20021;-49
2022/03/08 07:46:35;;;;;;;37.88;14.07;;;;;;;5.17;49.05;102066.34;5079777;28;20032;-50
2022/03/08 07:49:01;;;;;;;27.08;13.77;;;;;;;5.93;46.53;102072.91;5089806;28;20044;-50
2022/03/08 07:51:26;;;;;;;27.73;13.30;;;;;;;5.70;46.45;102074.72;5088706;28;20028;-49
2022/03/08 07:53:52;;;;;;;30.38;12.85;;;;;;;6.45;44.74;102066.09;5079102;28;20031;-47
2022/03/08 07:56:17;;;;;;;32.25;13.65;;;;;;;7.33;42.67;102056.97;5094115;28;20071;-47
2022/03/08 07:58:42;;;;;;;29.33;14.32;;;;;;;8.08;41.92;102062.97;5093279;28;20493;-47
2022/03/08 08:01:08;;;;;;;29.13;12.98;;;;;;;8.87;39.05;102065.69;5089243;28;20024;-49
2022/03/08 08:03:33;;;;;;;25.80;12.25;;;;;;;7.52;40.14;102083.00;5089545;28;20158;-49
2022/03/08 08:05:59;;;;;;;37.47;13.27;;;;;;;7.45;40.98;102073.78;5078510;28;20048;-48
2022/03/08 08:08:25;;;;;;;26.40;12.32;;;;;;;8.48;39.08;102067.50;5087395;28;20051;-49
2022/03/08 08:10:50;;;;;;;23.58;11.40;;;;;;;8.27;39.45;102092.56;5093076;28;20024;-49
2022/03/08 08:13:15;;;;;;;24.10;12.10;;;;;;;6.98;41.81;102078.69;5093237;28;20035;-48
2022/03/08 08:15:41;;;;;;;22.95;12.68;;;;;;;7.64;40.64;102081.97;5093575;28;20079;-47
2022/03/08 08:18:07;;;;;;;23.20;12.20;;;;;;;7.95;40.14;102076.59;5094048;28;20501;-46
2022/03/08 08:20:32;;;;;;;22.60;11.57;;;;;;;7.59;40.66;102081.50;5091697;28;20036;-49
2022/03/08 08:22:58;;;;;;;22.67;12.18;;;;;;;8.95;38.57;102081.97;5073128;28;20032;-47
2022/03/08 08:25:23;;;;;;;23.10;11.70;;;;;;;8.45;39.04;102076.69;5089296;28;20032;-47
2022/03/08 08:27:48;;;;;;;24.38;11.68;;;;;;;9.04;38.48;102076.75;5092753;28;20050;-48
2022/03/08 08:30:14;;;;;;;20.00;11.07;;;;;;;9.86;36.52;102074.31;5076020;28;20052;-47
2022/03/08 08:32:40;;;;;;;26.63;11.75;;;;;;;10.13;35.59;102090.63;5092527;28;20067;-48
2022/03/08 08:35:06;;;;;;;18.25;11.13;;;;;;;8.87;37.13;102068.38;5092699;28;20032;-46
2022/03/08 08:37:31;;;;;;;18.67;11.13;;;;;;;9.42;36.95;102074.00;5092458;28;20028;-49
2022/03/08 08:39:57;;;;;;;19.00;11.40;;;;;;;9.26;37.86;102065.69;5092695;28;20077;-47
2022/03/08 08:42:22;;;;;;;21.05;10.00;;;;;;;9.56;36.90;102066.50;5094662;28;20099;-50
2022/03/08 08:44:47;;;;;;;21.48;10.55;;;;;;;9.49;37.23;102063.53;5108021;28;20478;-48
2022/03/08 08:47:13;;;;;;;20.98;10.45;;;;;;;9.78;35.69;102055.38;5099026;28;20119;-51
2022/03/08 08:49:38;;;;;;;21.65;10.90;;;;;;;9.60;35.46;102060.66;5098630;28;20077;-48
2022/03/08 08:52:04;;;;;;;27.17;10.45;;;;;;;9.24;36.45;102051.53;5095616;28;20109;-48
2022/03/08 08:54:29;;;;;;;20.27;10.15;;;;;;;9.50;36.16;102061.69;5102102;28;20067;-49
2022/03/08 08:56:54;;;;;;;23.33;10.30;;;;;;;9.41;35.99;102049.97;5114173;28;20081;-51
2022/03/08 08:59:20;;;;;;;18.77;10.13;;;;;;;10.58;34.87;102050.31;5098953;28;20036;-50
2022/03/08 09:01:45;;;;;;;19.63;10.52;;;;;;;10.93;34.00;102037.88;5100594;28;20020;-51
2022/03/08 09:04:11;;;;;;;19.70;10.20;;;;;;;10.87;33.16;102035.78;5092885;28;20033;-47
2022/03/08 09:06:36;;;;;;;22.92;10.82;;;;;;;11.09;33.47;102039.88;5071889;28;20052;-47
2022/03/08 09:09:02;;;;;;;24.55;11.15;;;;;;;10.86;32.97;102044.88;5094597;28;20020;-49
2022/03/08 09:11:28;;;;;;;22.05;10.32;;;;;;;10.76;33.30;102037.72;5074997;28;20327;-49
2022/03/08 09:13:53;;;;;;;21.40;10.90;;;;;;;10.40;34.01;102049.44;5076583;28;20024;-49
2022/03/08 09:16:18;;;;;;;15.65;9.52;;;;;;;10.09;35.27;102036.28;5086013;28;20115;-50
2022/03/08 09:18:44;;;;;;;21.83;10.30;;;;;;;11.48;33.60;102040.31;5083873;28;20024;-49
2022/03/08 09:21:11;;;;;;;25.33;10.13;;;;;;;11.75;32.49;102051.94;5088104;28;20051;-50
2022/03/08 09:23:37;;;;;;;17.92;10.40;;;;;;;11.86;31.95;102043.59;5078496;28;20026;-50
2022/03/08 09:26:03;;;;;;;21.35;10.05;;;;;;;10.58;33.14;102047.63;5070322;28;20028;-49
2022/03/08 09:28:28;;;;;;;18.88;10.65;;;;;;;10.55;33.30;102023.72;5088034;28;20028;-51
2022/03/08 09:30:54;;;;;;;16.75;9.65;;;;;;;10.62;32.38;102034.72;5091599;28;20024;-51
2022/03/08 09:33:19;;;;;;;14.88;9.93;;;;;;;10.07;34.18;102035.59;5092711;28;20089;-50
2022/03/08 09:35:45;;;;;;;20.58;9.88;;;;;;;10.08;34.14;102034.56;5091774;28;20036;-50
2022/03/08 09:38:12;;;;;;;18.20;9.38;;;;;;;9.87;34.12;102032.13;5091856;28;20050;-50
2022/03/08 09:40:38;;;;;;;16.40;10.00;;;;;;;9.89;34.65;102028.28;5081133;28;20016;-50
2022/03/08 09:43:03;;;;;;;22.15;10.30;;;;;;;9.56;33.64;102035.09;5090781;28;20024;-50
2022/03/08 09:45:29;;;;;;;20.83;10.55;;;;;;;8.74;36.20;102032.91;5082105;28;20084;-49
2022/03/08 09:47:54;;;;;;;16.88;9.57;;;;;;;8.33;36.28;102027.63;5091539;28;20042;-48
2022/03/08 09:50:19;;;;;;;16.50;9.70;;;;;;;9.24;36.07;102024.69;5091771;28;20406;-48
2022/03/08 09:52:45;;;;;;;15.65;9.50;;;;;;;8.81;35.61;102039.44;5091555;28;20024;-50
2022/03/08 09:55:13;;;;;;;17.65;10.02;;;;;;;8.66;35.81;102030.09;5092015;28;20074;-52
2022/03/08 09:57:38;;;;;;;20.85;11.07;;;;;;;7.76;37.60;102026.44;5090202;28;20137;-51
2022/03/08 10:00:05;;;;;;;17.25;10.25;;;;;;;8.39;37.29;102026.25;5091731;28;20494;-50
2022/03/08 10:02:50;;;;;;;25.30;10.93;;;;;;;8.80;36.38;102016.25;5079022;28;20043;-53
2022/03/08 10:05:21;;;;;;;19.38;11.02;;;;;;;8.61;36.25;102029.66;5091176;28;20074;-49
2022/03/08 10:08:13;;;;;;;16.85;10.45;;;;;;;8.02;37.15;102020.63;5090626;28;20123;-50
2022/03/08 10:11:01;;;;;;;16.08;10.25;;;;;;;8.53;37.59;102019.63;5089252;28;20024;-50
2022/03/08 10:13:30;;;;;;;19.58;9.75;;;;;;;8.60;36.31;102012.72;5091205;28;20075;-49
2022/03/08 10:16:05;;;;;;;20.95;10.48;;;;;;;8.63;36.97;102009.75;5089891;28;20382;-53
2022/03/08 10:18:35;;;;;;;22.40;11.02;;;;;;;8.90;36.64;102022.47;5091086;28;20441;-52
2022/03/08 10:21:01;;;;;;;22.73;11.77;;;;;;;8.92;36.13;102003.53;5090316;28;20040;-50
2022/03/08 10:23:26;;;;;;;18.40;10.63;;;;;;;8.99;35.40;102005.50;5091136;28;20032;-51
2022/03/08 10:25:52;;;;;;;18.50;10.82;;;;;;;8.28;36.35;102004.88;5087999;28;20533;-50
2022/03/08 10:28:17;;;;;;;25.35;12.25;;;;;;;8.73;37.04;101990.97;5090912;28;20415;-50
2022/03/08 10:30:42;;;;;;;21.30;10.35;;;;;;;9.47;35.03;101989.44;5090844;28;20386;-49
2022/03/08 10:33:07;;;;;;;20.58;11.13;;;;;;;9.28;34.55;101984.97;5090262;28;20399;-46
2022/03/08 10:35:39;;;;;;;20.48;10.35;;;;;;;8.84;35.17;101993.50;5090620;28;20382;-45
2022/03/08 10:38:06;;;;;;;21.77;11.32;;;;;;;8.39;35.95;101980.63;5089583;28;20039;-50
2022/03/08 10:40:35;;;;;;;19.92;10.85;;;;;;;8.02;36.88;101975.03;5090416;28;20028;-48
2022/03/08 10:43:03;;;;;;;20.00;10.57;;;;;;;8.02;36.60;101962.47;5090720;28;20036;-46
2022/03/08 10:45:30;;;;;;;24.10;10.65;;;;;;;8.60;35.59;101971.63;5087819;28;20085;-48
2022/03/08 10:47:56;;;;;;;22.02;11.43;;;;;;;8.41;35.89;101964.41;5081055;28;20538;-49
2022/03/08 10:50:28;;;;;;;18.88;10.88;;;;;;;8.38;36.22;101968.19;5090818;28;20059;-46
2022/03/08 10:52:55;;;;;;;20.98;10.88;;;;;;;8.21;36.40;101955.47;5090249;28;20103;-49
2022/03/08 10:55:21;;;;;;;22.45;10.93;;;;;;;8.38;36.55;101962.00;5090777;28;20432;-47
2022/03/08 10:57:54;;;;;;;29.15;11.32;;;;;;;9.36;35.94;101942.94;5090072;28;20548;-47
2022/03/08 11:00:27;;;;;;;20.23;10.65;;;;;;;9.67;34.12;101950.72;5090373;28;20039;-46
2022/03/08 11:03:03;;;;;;;22.35;10.85;;;;;;;9.25;33.44;101945.81;5089888;28;20127;-46
2022/03/08 11:05:35;;;;;;;22.77;11.00;;;;;;;9.00;33.97;101963.38;5090334;28;20386;-48
2022/03/08 11:08:00;;;;;;;18.00;10.13;;;;;;;8.67;33.12;101959.34;5080370;28;20449;-50
2022/03/08 11:10:27;;;;;;;20.63;10.30;;;;;;;9.13;33.86;101936.22;5090589;28;20120;-48